sensor_id;sensor_type;location;lat;lon;timestamp;P1;durP1;ratioP1;P2;durP2;ratioP2
55112;SDS011;41006;50.920;3.456;2023-04-01T00:00:16;13.80;;;10.90;;
55112;SDS011;41006;50.920;3.456;2023-04-01T00:00:49;15.70;;;10.82;;
55112;SDS011;41006;50.920;3.456;2023-04-01T00:01:19;16.67;;;10.93;;
55112;SDS011;41006;50.920;3.456;2023-04-01T00:01:50;17.27;;;11.63;;
55112;SDS011;41006;50.920;3.456;2023-04-01T00:02:20;15.10;;;11.15;;
55112;SDS011;41006;50.920;3.456;2023-04-01T00:02:53;16.13;;;9.90;;
55112;SDS011;41006;50.920;3.456;2023-04-01T00:03:25;11.82;;;10.63;;
55112;SDS011;41006;50.920;3.456;2023-04-01T00:03:57;14.98;;;10.55;;
55112;SDS011;41006;50.920;3.456;2023-04-01T00:04:30;13.68;;;10.10;;
55112;SDS011;41006;50.920;3.456;2023-04-01T00:05:00;17.60;;;10.55;;
55112;SDS011;41006;50.920;3.456;2023-04-01T00:05:31;13.55;;;9.98;;
55112;SDS011;41006;50.920;3.456;2023-04-01T00:06:05;12.82;;;9.88;;
55112;SDS011;41006;50.920;3.456;2023-04-01T00:06:35;14.95;;;10.50;;
55112;SDS011;41006;50.920;3.456;2023-04-01T00:07:05;11.80;;;10.05;;
55112;SDS011;41006;50.920;3.456;2023-04-01T00:07:36;11.50;;;10.05;;
55112;SDS011;41006;50.920;3.456;2023-04-01T00:08:09;15.02;;;10.68;;
55112;SDS011;41006;50.920;3.456;2023-04-01T00:08:39;11.23;;;9.77;;
55112;SDS011;41006;50.920;3.456;2023-04-01T00:09:10;11.80;;;10.70;;
55112;SDS011;41006;50.920;3.456;2023-04-01T00:09:40;12.15;;;9.82;;
55112;SDS011;41006;50.920;3.456;2023-04-01T00:10:11;12.98;;;11.43;;
55112;SDS011;41006;50.920;3.456;2023-04-01T00:10:41;16.58;;;11.40;;
55112;SDS011;41006;50.920;3.456;2023-04-01T00:11:16;12.63;;;10.35;;
55112;SDS011;41006;50.920;3.456;2023-04-01T00:11:51;17.73;;;11.52;;
55112;SDS011;41006;50.920;3.456;2023-04-01T00:12:24;13.05;;;10.82;;
55112;SDS011;41006;50.920;3.456;2023-04-01T00:12:57;15.45;;;11.77;;
55112;SDS011;41006;50.920;3.456;2023-04-01T00:13:27;16.55;;;12.50;;
55112;SDS011;41006;50.920;3.456;2023-04-01T00:14:00;16.50;;;12.73;;
55112;SDS011;41006;50.920;3.456;2023-04-01T00:14:30;14.18;;;12.43;;
55112;SDS011;41006;50.920;3.456;2023-04-01T00:15:00;18.60;;;12.27;;
55112;SDS011;41006;50.920;3.456;2023-04-01T00:15:35;19.52;;;12.75;;
55112;SDS011;41006;50.920;3.456;2023-04-01T00:16:06;15.75;;;12.32;;
55112;SDS011;41006;50.920;3.456;2023-04-01T00:16:38;21.00;;;13.60;;
55112;SDS011;41006;50.920;3.456;2023-04-01T00:17:14;15.90;;;12.50;;
55112;SDS011;41006;50.920;3.456;2023-04-01T00:17:44;20.85;;;13.68;;
55112;SDS011;41006;50.920;3.456;2023-04-01T00:18:15;15.48;;;13.07;;
55112;SDS011;41006;50.920;3.456;2023-04-01T00:18:45;15.85;;;13.23;;
55112;SDS011;41006;50.920;3.456;2023-04-01T00:19:17;15.57;;;13.77;;
55112;SDS011;41006;50.920;3.456;2023-04-01T00:19:47;19.80;;;14.07;;
55112;SDS011;41006;50.920;3.456;2023-04-01T00:20:18;17.38;;;13.25;;
55112;SDS011;41006;50.920;3.456;2023-04-01T00:20:50;19.73;;;14.32;;
55112;SDS011;41006;50.920;3.456;2023-04-01T00:21:24;18.15;;;15.18;;
55112;SDS011;41006;50.920;3.456;2023-04-01T00:21:57;21.85;;;15.00;;
55112;SDS011;41006;50.920;3.456;2023-04-01T00:22:27;19.15;;;14.43;;
55112;SDS011;41006;50.920;3.456;2023-04-01T00:23:03;21.35;;;15.48;;
55112;SDS011;41006;50.920;3.456;2023-04-01T00:23:36;19.08;;;15.60;;
55112;SDS011;41006;50.920;3.456;2023-04-01T00:24:06;23.45;;;16.48;;
55112;SDS011;41006;50.920;3.456;2023-04-01T00:24:37;25.15;;;16.27;;
55112;SDS011;41006;50.920;3.456;2023-04-01T00:25:13;24.77;;;16.25;;
55112;SDS011;41006;50.920;3.456;2023-04-01T00:25:47;19.38;;;15.52;;
55112;SDS011;41006;50.920;3.456;2023-04-01T00:26:18;18.63;;;16.70;;
55112;SDS011;41006;50.920;3.456;2023-04-01T00:26:53;23.90;;;16.85;;
55112;SDS011;41006;50.920;3.456;2023-04-01T00:27:23;20.23;;;17.40;;
55112;SDS011;41006;50.920;3.456;2023-04-01T00:27:55;21.20;;;17.42;;
55112;SDS011;41006;50.920;3.456;2023-04-01T00:28:26;23.58;;;18.40;;
55112;SDS011;41006;50.920;3.456;2023-04-01T00:29:00;24.58;;;20.17;;
55112;SDS011;41006;50.920;3.456;2023-04-01T00:29:31;23.85;;;18.20;;
55112;SDS011;41006;50.920;3.456;2023-04-01T00:30:05;28.45;;;20.10;;
55112;SDS011;41006;50.920;3.456;2023-04-01T00:30:36;22.67;;;19.33;;
55112;SDS011;41006;50.920;3.456;2023-04-01T00:31:07;28.25;;;18.50;;
55112;SDS011;41006;50.920;3.456;2023-04-01T00:31:40;28.02;;;18.73;;
55112;SDS011;41006;50.920;3.456;2023-04-01T00:32:13;26.42;;;17.77;;
55112;SDS011;41006;50.920;3.456;2023-04-01T00:32:44;25.90;;;16.80;;
55112;SDS011;41006;50.920;3.456;2023-04-01T00:33:16;22.75;;;17.23;;
55112;SDS011;41006;50.920;3.456;2023-04-01T00:33:50;19.27;;;16.27;;
55112;SDS011;41006;50.920;3.456;2023-04-01T00:34:21;21.58;;;15.75;;
55112;SDS011;41006;50.920;3.456;2023-04-01T00:34:51;22.73;;;14.93;;
55112;SDS011;41006;50.920;3.456;2023-04-01T00:35:25;23.48;;;16.85;;
55112;SDS011;41006;50.920;3.456;2023-04-01T00:35:56;19.67;;;15.98;;
55112;SDS011;41006;50.920;3.456;2023-04-01T00:36:26;25.00;;;17.58;;
55112;SDS011;41006;50.920;3.456;2023-04-01T00:36:58;29.60;;;16.98;;
55112;SDS011;41006;50.920;3.456;2023-04-01T00:37:29;21.70;;;16.70;;
55112;SDS011;41006;50.920;3.456;2023-04-01T00:37:59;28.75;;;17.40;;
55112;SDS011;41006;50.920;3.456;2023-04-01T00:38:29;22.67;;;17.10;;
55112;SDS011;41006;50.920;3.456;2023-04-01T00:39:02;23.05;;;17.15;;
55112;SDS011;41006;50.920;3.456;2023-04-01T00:39:33;24.27;;;16.13;;
55112;SDS011;41006;50.920;3.456;2023-04-01T00:40:06;22.40;;;16.08;;
55112;SDS011;41006;50.920;3.456;2023-04-01T00:40:38;24.63;;;16.38;;
55112;SDS011;41006;50.920;3.456;2023-04-01T00:41:11;26.83;;;16.63;;
55112;SDS011;41006;50.920;3.456;2023-04-01T00:41:44;27.42;;;18.38;;
55112;SDS011;41006;50.920;3.456;2023-04-01T00:42:15;17.65;;;15.68;;
55112;SDS011;41006;50.920;3.456;2023-04-01T00:42:45;25.13;;;15.80;;
55112;SDS011;41006;50.920;3.456;2023-04-01T00:43:16;27.10;;;17.02;;
55112;SDS011;41006;50.920;3.456;2023-04-01T00:43:49;25.42;;;16.73;;
55112;SDS011;41006;50.920;3.456;2023-04-01T00:44:50;30.58;;;16.40;;
55112;SDS011;41006;50.920;3.456;2023-04-01T00:45:25;23.40;;;16.20;;
55112;SDS011;41006;50.920;3.456;2023-04-01T00:45:58;17.48;;;15.57;;
55112;SDS011;41006;50.920;3.456;2023-04-01T00:46:28;21.85;;;14.75;;
55112;SDS011;41006;50.920;3.456;2023-04-01T00:46:59;22.98;;;15.40;;
55112;SDS011;41006;50.920;3.456;2023-04-01T00:47:29;21.95;;;15.27;;
55112;SDS011;41006;50.920;3.456;2023-04-01T00:48:01;23.15;;;15.23;;
55112;SDS011;41006;50.920;3.456;2023-04-01T00:48:37;23.27;;;16.50;;
55112;SDS011;41006;50.920;3.456;2023-04-01T00:49:10;27.35;;;16.63;;
55112;SDS011;41006;50.920;3.456;2023-04-01T00:49:44;25.05;;;16.73;;
55112;SDS011;41006;50.920;3.456;2023-04-01T00:50:17;24.08;;;15.90;;
55112;SDS011;41006;50.920;3.456;2023-04-01T00:50:50;28.40;;;16.88;;
55112;SDS011;41006;50.920;3.456;2023-04-01T00:51:25;21.15;;;15.38;;
55112;SDS011;41006;50.920;3.456;2023-04-01T00:51:56;19.38;;;14.30;;
55112;SDS011;41006;50.920;3.456;2023-04-01T00:52:29;28.13;;;13.68;;
55112;SDS011;41006;50.920;3.456;2023-04-01T00:53:00;22.40;;;13.45;;
55112;SDS011;41006;50.920;3.456;2023-04-01T00:53:34;23.58;;;13.15;;
55112;SDS011;41006;50.920;3.456;2023-04-01T00:54:05;24.58;;;13.63;;
55112;SDS011;41006;50.920;3.456;2023-04-01T00:54:40;22.23;;;13.57;;
55112;SDS011;41006;50.920;3.456;2023-04-01T00:55:13;23.60;;;13.02;;
55112;SDS011;41006;50.920;3.456;2023-04-01T00:56:32;26.58;;;13.90;;
55112;SDS011;41006;50.920;3.456;2023-04-01T00:57:06;39.80;;;18.40;;
55112;SDS011;41006;50.920;3.456;2023-04-01T00:57:38;41.85;;;17.75;;
55112;SDS011;41006;50.920;3.456;2023-04-01T00:58:14;35.67;;;18.90;;
55112;SDS011;41006;50.920;3.456;2023-04-01T00:58:46;38.50;;;18.83;;
55112;SDS011;41006;50.920;3.456;2023-04-01T00:59:25;30.10;;;15.82;;
55112;SDS011;41006;50.920;3.456;2023-04-01T00:59:59;24.63;;;14.77;;
55112;SDS011;41006;50.920;3.456;2023-04-01T01:00:32;32.17;;;13.95;;
55112;SDS011;41006;50.920;3.456;2023-04-01T01:01:02;19.02;;;12.40;;
55112;SDS011;41006;50.920;3.456;2023-04-01T01:01:36;23.25;;;12.40;;
55112;SDS011;41006;50.920;3.456;2023-04-01T01:02:07;19.60;;;11.80;;
55112;SDS011;41006;50.920;3.456;2023-04-01T01:02:38;20.92;;;13.27;;
55112;SDS011;41006;50.920;3.456;2023-04-01T01:03:10;22.30;;;13.02;;
55112;SDS011;41006;50.920;3.456;2023-04-01T01:03:42;16.77;;;11.43;;
55112;SDS011;41006;50.920;3.456;2023-04-01T01:04:55;23.70;;;12.30;;
55112;SDS011;41006;50.920;3.456;2023-04-01T01:05:29;18.35;;;11.25;;
55112;SDS011;41006;50.920;3.456;2023-04-01T01:06:43;21.13;;;12.30;;
55112;SDS011;41006;50.920;3.456;2023-04-01T01:09:41;18.88;;;11.25;;
55112;SDS011;41006;50.920;3.456;2023-04-01T01:10:43;21.58;;;12.30;;
55112;SDS011;41006;50.920;3.456;2023-04-01T01:11:18;20.80;;;12.50;;
55112;SDS011;41006;50.920;3.456;2023-04-01T01:14:09;26.65;;;11.82;;
55112;SDS011;41006;50.920;3.456;2023-04-01T01:15:55;19.85;;;12.25;;
55112;SDS011;41006;50.920;3.456;2023-04-01T01:16:29;27.77;;;12.82;;
55112;SDS011;41006;50.920;3.456;2023-04-01T01:17:05;19.90;;;12.63;;
55112;SDS011;41006;50.920;3.456;2023-04-01T01:17:57;26.55;;;12.65;;
55112;SDS011;41006;50.920;3.456;2023-04-01T01:18:35;24.52;;;13.07;;
55112;SDS011;41006;50.920;3.456;2023-04-01T01:19:19;24.00;;;12.27;;
55112;SDS011;41006;50.920;3.456;2023-04-01T01:20:03;18.90;;;11.05;;
55112;SDS011;41006;50.920;3.456;2023-04-01T01:24:13;21.20;;;12.48;;
55112;SDS011;41006;50.920;3.456;2023-04-01T01:27:01;22.17;;;12.15;;
55112;SDS011;41006;50.920;3.456;2023-04-01T01:27:37;14.30;;;11.30;;
55112;SDS011;41006;50.920;3.456;2023-04-01T01:30:51;26.58;;;11.65;;
55112;SDS011;41006;50.920;3.456;2023-04-01T01:33:25;25.67;;;12.45;;
55112;SDS011;41006;50.920;3.456;2023-04-01T01:34:11;22.23;;;12.38;;
55112;SDS011;41006;50.920;3.456;2023-04-01T01:35:46;27.45;;;13.38;;
55112;SDS011;41006;50.920;3.456;2023-04-01T01:36:20;24.02;;;12.57;;
55112;SDS011;41006;50.920;3.456;2023-04-01T01:36:53;24.67;;;12.93;;
55112;SDS011;41006;50.920;3.456;2023-04-01T01:37:25;31.92;;;13.63;;
55112;SDS011;41006;50.920;3.456;2023-04-01T01:38:58;30.23;;;13.15;;
55112;SDS011;41006;50.920;3.456;2023-04-01T01:39:30;18.27;;;11.63;;
55112;SDS011;41006;50.920;3.456;2023-04-01T01:40:04;22.35;;;12.20;;
55112;SDS011;41006;50.920;3.456;2023-04-01T01:40:35;31.63;;;14.65;;
55112;SDS011;41006;50.920;3.456;2023-04-01T01:41:07;28.48;;;13.82;;
55112;SDS011;41006;50.920;3.456;2023-04-01T01:41:38;28.35;;;14.50;;
55112;SDS011;41006;50.920;3.456;2023-04-01T01:42:11;23.40;;;12.95;;
55112;SDS011;41006;50.920;3.456;2023-04-01T01:42:49;26.08;;;12.23;;
55112;SDS011;41006;50.920;3.456;2023-04-01T01:43:41;29.92;;;13.77;;
55112;SDS011;41006;50.920;3.456;2023-04-01T01:44:13;26.27;;;13.27;;
55112;SDS011;41006;50.920;3.456;2023-04-01T01:44:45;24.05;;;12.50;;
55112;SDS011;41006;50.920;3.456;2023-04-01T01:45:16;19.60;;;13.13;;
55112;SDS011;41006;50.920;3.456;2023-04-01T01:45:50;22.17;;;13.52;;
55112;SDS011;41006;50.920;3.456;2023-04-01T01:46:22;23.75;;;12.60;;
55112;SDS011;41006;50.920;3.456;2023-04-01T01:46:53;25.48;;;12.20;;
55112;SDS011;41006;50.920;3.456;2023-04-01T01:47:27;29.58;;;14.13;;
55112;SDS011;41006;50.920;3.456;2023-04-01T01:48:03;25.50;;;13.20;;
55112;SDS011;41006;50.920;3.456;2023-04-01T01:48:35;24.10;;;12.35;;
55112;SDS011;41006;50.920;3.456;2023-04-01T01:49:06;28.75;;;12.68;;
55112;SDS011;41006;50.920;3.456;2023-04-01T01:49:37;24.27;;;13.38;;
55112;SDS011;41006;50.920;3.456;2023-04-01T01:50:09;23.13;;;13.05;;
55112;SDS011;41006;50.920;3.456;2023-04-01T01:50:42;26.35;;;13.63;;
55112;SDS011;41006;50.920;3.456;2023-04-01T01:51:12;20.33;;;13.07;;
55112;SDS011;41006;50.920;3.456;2023-04-01T01:51:45;26.33;;;14.27;;
55112;SDS011;41006;50.920;3.456;2023-04-01T01:52:16;30.98;;;14.60;;
55112;SDS011;41006;50.920;3.456;2023-04-01T01:52:47;28.75;;;13.48;;
55112;SDS011;41006;50.920;3.456;2023-04-01T01:53:17;33.97;;;16.08;;
55112;SDS011;41006;50.920;3.456;2023-04-01T01:53:47;24.88;;;14.32;;
55112;SDS011;41006;50.920;3.456;2023-04-01T01:54:20;20.90;;;13.68;;
55112;SDS011;41006;50.920;3.456;2023-04-01T01:54:53;22.27;;;13.80;;
55112;SDS011;41006;50.920;3.456;2023-04-01T01:55:59;33.92;;;18.00;;
55112;SDS011;41006;50.920;3.456;2023-04-01T01:56:29;32.80;;;21.80;;
55112;SDS011;41006;50.920;3.456;2023-04-01T01:57:05;39.25;;;24.08;;
55112;SDS011;41006;50.920;3.456;2023-04-01T01:57:36;36.92;;;23.75;;
55112;SDS011;41006;50.920;3.456;2023-04-01T01:58:49;36.35;;;26.27;;
55112;SDS011;41006;50.920;3.456;2023-04-01T01:59:24;41.75;;;27.42;;
55112;SDS011;41006;50.920;3.456;2023-04-01T01:59:59;43.08;;;29.90;;
55112;SDS011;41006;50.920;3.456;2023-04-01T02:00:31;40.17;;;31.40;;
55112;SDS011;41006;50.920;3.456;2023-04-01T02:01:03;43.00;;;31.33;;
55112;SDS011;41006;50.920;3.456;2023-04-01T02:01:35;39.80;;;30.58;;
55112;SDS011;41006;50.920;3.456;2023-04-01T02:02:07;34.85;;;25.75;;
55112;SDS011;41006;50.920;3.456;2023-04-01T02:02:41;37.05;;;23.63;;
55112;SDS011;41006;50.920;3.456;2023-04-01T02:03:12;39.08;;;24.42;;
55112;SDS011;41006;50.920;3.456;2023-04-01T02:03:45;33.75;;;24.40;;
55112;SDS011;41006;50.920;3.456;2023-04-01T02:04:17;31.38;;;20.17;;
55112;SDS011;41006;50.920;3.456;2023-04-01T02:04:51;24.33;;;18.45;;
55112;SDS011;41006;50.920;3.456;2023-04-01T02:05:25;24.38;;;16.30;;
55112;SDS011;41006;50.920;3.456;2023-04-01T02:05:56;23.83;;;15.02;;
55112;SDS011;41006;50.920;3.456;2023-04-01T02:06:29;26.45;;;15.32;;
55112;SDS011;41006;50.920;3.456;2023-04-01T02:07:02;19.58;;;14.32;;
55112;SDS011;41006;50.920;3.456;2023-04-01T02:07:35;29.65;;;15.20;;
55112;SDS011;41006;50.920;3.456;2023-04-01T02:09:22;19.00;;;14.43;;
55112;SDS011;41006;50.920;3.456;2023-04-01T02:09:53;17.48;;;14.02;;
55112;SDS011;41006;50.920;3.456;2023-04-01T02:10:24;24.08;;;14.65;;
55112;SDS011;41006;50.920;3.456;2023-04-01T02:10:56;25.30;;;14.18;;
55112;SDS011;41006;50.920;3.456;2023-04-01T02:12:10;25.48;;;14.63;;
55112;SDS011;41006;50.920;3.456;2023-04-01T02:12:45;16.77;;;13.00;;
55112;SDS011;41006;50.920;3.456;2023-04-01T02:13:18;23.80;;;12.57;;
55112;SDS011;41006;50.920;3.456;2023-04-01T02:13:53;23.48;;;13.88;;
55112;SDS011;41006;50.920;3.456;2023-04-01T02:15:04;26.77;;;13.60;;
55112;SDS011;41006;50.920;3.456;2023-04-01T02:15:37;19.80;;;12.98;;
55112;SDS011;41006;50.920;3.456;2023-04-01T02:16:24;16.40;;;12.65;;
55112;SDS011;41006;50.920;3.456;2023-04-01T02:16:57;21.02;;;12.77;;
55112;SDS011;41006;50.920;3.456;2023-04-01T02:17:30;23.02;;;13.68;;
55112;SDS011;41006;50.920;3.456;2023-04-01T02:18:03;29.90;;;13.57;;
55112;SDS011;41006;50.920;3.456;2023-04-01T02:18:35;21.13;;;12.40;;
55112;SDS011;41006;50.920;3.456;2023-04-01T02:19:07;23.23;;;11.85;;
55112;SDS011;41006;50.920;3.456;2023-04-01T02:19:39;17.98;;;11.05;;
55112;SDS011;41006;50.920;3.456;2023-04-01T02:20:40;17.45;;;11.90;;
55112;SDS011;41006;50.920;3.456;2023-04-01T02:21:12;17.02;;;11.05;;
55112;SDS011;41006;50.920;3.456;2023-04-01T02:21:44;20.88;;;12.45;;
55112;SDS011;41006;50.920;3.456;2023-04-01T02:22:16;22.33;;;11.90;;
55112;SDS011;41006;50.920;3.456;2023-04-01T02:22:48;18.58;;;11.20;;
55112;SDS011;41006;50.920;3.456;2023-04-01T02:23:24;17.20;;;12.15;;
55112;SDS011;41006;50.920;3.456;2023-04-01T02:23:55;20.90;;;11.55;;
55112;SDS011;41006;50.920;3.456;2023-04-01T02:24:30;20.75;;;11.73;;
55112;SDS011;41006;50.920;3.456;2023-04-01T02:25:06;19.13;;;11.05;;
55112;SDS011;41006;50.920;3.456;2023-04-01T02:25:37;18.92;;;12.95;;
55112;SDS011;41006;50.920;3.456;2023-04-01T02:26:07;21.35;;;12.38;;
55112;SDS011;41006;50.920;3.456;2023-04-01T02:26:40;20.10;;;11.95;;
55112;SDS011;41006;50.920;3.456;2023-04-01T02:27:10;16.92;;;12.38;;
55112;SDS011;41006;50.920;3.456;2023-04-01T02:27:42;14.00;;;11.10;;
55112;SDS011;41006;50.920;3.456;2023-04-01T02:28:13;21.05;;;11.65;;
55112;SDS011;41006;50.920;3.456;2023-04-01T02:28:46;19.73;;;11.48;;
55112;SDS011;41006;50.920;3.456;2023-04-01T02:29:19;15.55;;;11.50;;
55112;SDS011;41006;50.920;3.456;2023-04-01T02:29:52;14.35;;;10.88;;
55112;SDS011;41006;50.920;3.456;2023-04-01T02:30:23;18.45;;;11.77;;
55112;SDS011;41006;50.920;3.456;2023-04-01T02:30:53;17.15;;;11.05;;
55112;SDS011;41006;50.920;3.456;2023-04-01T02:31:24;17.63;;;11.63;;
55112;SDS011;41006;50.920;3.456;2023-04-01T02:31:57;20.08;;;11.95;;
55112;SDS011;41006;50.920;3.456;2023-04-01T02:32:28;19.83;;;12.30;;
55112;SDS011;41006;50.920;3.456;2023-04-01T02:32:59;20.65;;;11.93;;
55112;SDS011;41006;50.920;3.456;2023-04-01T02:33:35;18.13;;;11.75;;
55112;SDS011;41006;50.920;3.456;2023-04-01T02:34:08;19.23;;;10.63;;
55112;SDS011;41006;50.920;3.456;2023-04-01T02:34:40;19.63;;;11.70;;
55112;SDS011;41006;50.920;3.456;2023-04-01T02:35:13;15.98;;;11.77;;
55112;SDS011;41006;50.920;3.456;2023-04-01T02:35:46;16.73;;;10.88;;
55112;SDS011;41006;50.920;3.456;2023-04-01T02:36:17;26.83;;;12.45;;
55112;SDS011;41006;50.920;3.456;2023-04-01T02:36:49;20.67;;;11.23;;
55112;SDS011;41006;50.920;3.456;2023-04-01T02:37:23;19.05;;;11.40;;
55112;SDS011;41006;50.920;3.456;2023-04-01T02:37:53;23.98;;;12.70;;
55112;SDS011;41006;50.920;3.456;2023-04-01T02:38:26;19.33;;;11.57;;
55112;SDS011;41006;50.920;3.456;2023-04-01T02:38:59;17.52;;;12.43;;
55112;SDS011;41006;50.920;3.456;2023-04-01T02:39:34;16.77;;;12.27;;
55112;SDS011;41006;50.920;3.456;2023-04-01T02:40:05;16.90;;;11.25;;
55112;SDS011;41006;50.920;3.456;2023-04-01T02:40:41;16.95;;;10.82;;
55112;SDS011;41006;50.920;3.456;2023-04-01T02:41:11;12.63;;;11.32;;
55112;SDS011;41006;50.920;3.456;2023-04-01T02:41:42;16.05;;;12.05;;
55112;SDS011;41006;50.920;3.456;2023-04-01T02:42:13;18.90;;;11.95;;
55112;SDS011;41006;50.920;3.456;2023-04-01T02:42:43;18.48;;;12.35;;
55112;SDS011;41006;50.920;3.456;2023-04-01T02:43:14;19.77;;;12.57;;
55112;SDS011;41006;50.920;3.456;2023-04-01T02:43:46;15.75;;;11.40;;
55112;SDS011;41006;50.920;3.456;2023-04-01T02:44:16;15.45;;;11.73;;
55112;SDS011;41006;50.920;3.456;2023-04-01T02:44:46;19.08;;;11.50;;
55112;SDS011;41006;50.920;3.456;2023-04-01T02:45:17;20.17;;;12.45;;
55112;SDS011;41006;50.920;3.456;2023-04-01T02:45:49;18.58;;;12.52;;
55112;SDS011;41006;50.920;3.456;2023-04-01T02:46:22;14.82;;;11.05;;
55112;SDS011;41006;50.920;3.456;2023-04-01T02:46:54;16.13;;;11.85;;
55112;SDS011;41006;50.920;3.456;2023-04-01T02:47:25;19.08;;;12.52;;
55112;SDS011;41006;50.920;3.456;2023-04-01T02:47:55;17.85;;;12.25;;
55112;SDS011;41006;50.920;3.456;2023-04-01T02:48:25;18.35;;;12.57;;
55112;SDS011;41006;50.920;3.456;2023-04-01T02:48:55;19.65;;;12.02;;
55112;SDS011;41006;50.920;3.456;2023-04-01T02:49:26;19.90;;;12.45;;
55112;SDS011;41006;50.920;3.456;2023-04-01T02:49:56;18.38;;;11.88;;
55112;SDS011;41006;50.920;3.456;2023-04-01T02:50:28;18.77;;;12.85;;
55112;SDS011;41006;50.920;3.456;2023-04-01T02:51:01;13.57;;;11.27;;
55112;SDS011;41006;50.920;3.456;2023-04-01T02:51:31;16.45;;;11.02;;
55112;SDS011;41006;50.920;3.456;2023-04-01T02:52:04;15.57;;;12.05;;
55112;SDS011;41006;50.920;3.456;2023-04-01T02:52:34;15.20;;;12.02;;
55112;SDS011;41006;50.920;3.456;2023-04-01T02:53:06;15.10;;;12.77;;
55112;SDS011;41006;50.920;3.456;2023-04-01T02:53:39;17.70;;;11.80;;
55112;SDS011;41006;50.920;3.456;2023-04-01T02:54:09;22.95;;;11.43;;
55112;SDS011;41006;50.920;3.456;2023-04-01T02:54:39;18.05;;;12.48;;
55112;SDS011;41006;50.920;3.456;2023-04-01T02:55:12;17.33;;;11.50;;
55112;SDS011;41006;50.920;3.456;2023-04-01T02:55:43;19.38;;;11.80;;
55112;SDS011;41006;50.920;3.456;2023-04-01T02:56:15;14.65;;;12.18;;
55112;SDS011;41006;50.920;3.456;2023-04-01T02:56:46;17.52;;;11.98;;
55112;SDS011;41006;50.920;3.456;2023-04-01T02:57:16;19.33;;;12.07;;
55112;SDS011;41006;50.920;3.456;2023-04-01T02:57:46;22.02;;;12.73;;
55112;SDS011;41006;50.920;3.456;2023-04-01T02:58:19;15.07;;;12.25;;
55112;SDS011;41006;50.920;3.456;2023-04-01T02:58:49;15.77;;;12.45;;
55112;SDS011;41006;50.920;3.456;2023-04-01T02:59:21;18.83;;;12.98;;
55112;SDS011;41006;50.920;3.456;2023-04-01T02:59:55;20.58;;;13.27;;
55112;SDS011;41006;50.920;3.456;2023-04-01T03:00:25;19.02;;;12.07;;
55112;SDS011;41006;50.920;3.456;2023-04-01T03:00:58;16.15;;;11.85;;
55112;SDS011;41006;50.920;3.456;2023-04-01T03:01:28;16.45;;;11.70;;
55112;SDS011;41006;50.920;3.456;2023-04-01T03:02:01;20.00;;;12.80;;
55112;SDS011;41006;50.920;3.456;2023-04-01T03:02:31;13.30;;;11.70;;
55112;SDS011;41006;50.920;3.456;2023-04-01T03:03:01;15.45;;;11.85;;
55112;SDS011;41006;50.920;3.456;2023-04-01T03:03:32;16.08;;;12.65;;
55112;SDS011;41006;50.920;3.456;2023-04-01T03:04:02;14.05;;;12.63;;
55112;SDS011;41006;50.920;3.456;2023-04-01T03:04:33;15.15;;;13.02;;
55112;SDS011;41006;50.920;3.456;2023-04-01T03:05:03;17.88;;;13.38;;
55112;SDS011;41006;50.920;3.456;2023-04-01T03:05:34;17.00;;;12.38;;
55112;SDS011;41006;50.920;3.456;2023-04-01T03:06:11;17.30;;;12.70;;
55112;SDS011;41006;50.920;3.456;2023-04-01T03:06:42;12.85;;;11.52;;
55112;SDS011;41006;50.920;3.456;2023-04-01T03:07:15;21.48;;;12.48;;
55112;SDS011;41006;50.920;3.456;2023-04-01T03:07:50;18.88;;;13.27;;
55112;SDS011;41006;50.920;3.456;2023-04-01T03:08:20;14.48;;;11.82;;
55112;SDS011;41006;50.920;3.456;2023-04-01T03:08:51;16.05;;;12.43;;
55112;SDS011;41006;50.920;3.456;2023-04-01T03:09:21;14.25;;;12.15;;
55112;SDS011;41006;50.920;3.456;2023-04-01T03:09:51;19.20;;;12.57;;
55112;SDS011;41006;50.920;3.456;2023-04-01T03:10:24;16.92;;;12.32;;
55112;SDS011;41006;50.920;3.456;2023-04-01T03:10:55;16.83;;;12.48;;
55112;SDS011;41006;50.920;3.456;2023-04-01T03:11:25;14.48;;;12.77;;
55112;SDS011;41006;50.920;3.456;2023-04-01T03:11:56;18.10;;;12.55;;
55112;SDS011;41006;50.920;3.456;2023-04-01T03:12:26;17.67;;;12.60;;
55112;SDS011;41006;50.920;3.456;2023-04-01T03:12:59;16.85;;;12.57;;
55112;SDS011;41006;50.920;3.456;2023-04-01T03:13:29;17.95;;;13.35;;
55112;SDS011;41006;50.920;3.456;2023-04-01T03:13:59;14.82;;;12.50;;
55112;SDS011;41006;50.920;3.456;2023-04-01T03:14:32;14.20;;;12.43;;
55112;SDS011;41006;50.920;3.456;2023-04-01T03:15:05;15.52;;;13.63;;
55112;SDS011;41006;50.920;3.456;2023-04-01T03:15:37;17.55;;;12.80;;
55112;SDS011;41006;50.920;3.456;2023-04-01T03:16:10;15.70;;;12.50;;
55112;SDS011;41006;50.920;3.456;2023-04-01T03:16:40;25.75;;;12.82;;
55112;SDS011;41006;50.920;3.456;2023-04-01T03:17:13;20.58;;;13.10;;
55112;SDS011;41006;50.920;3.456;2023-04-01T03:17:44;16.33;;;12.93;;
55112;SDS011;41006;50.920;3.456;2023-04-01T03:18:19;17.48;;;13.05;;
55112;SDS011;41006;50.920;3.456;2023-04-01T03:18:49;16.30;;;14.15;;
55112;SDS011;41006;50.920;3.456;2023-04-01T03:19:24;18.25;;;13.07;;
55112;SDS011;41006;50.920;3.456;2023-04-01T03:19:54;19.90;;;13.10;;
55112;SDS011;41006;50.920;3.456;2023-04-01T03:20:27;15.43;;;13.70;;
55112;SDS011;41006;50.920;3.456;2023-04-01T03:20:57;16.15;;;14.05;;
55112;SDS011;41006;50.920;3.456;2023-04-01T03:21:41;14.88;;;13.30;;
55112;SDS011;41006;50.920;3.456;2023-04-01T03:22:11;19.50;;;13.65;;
55112;SDS011;41006;50.920;3.456;2023-04-01T03:22:42;16.17;;;14.55;;
55112;SDS011;41006;50.920;3.456;2023-04-01T03:23:12;19.98;;;14.38;;
55112;SDS011;41006;50.920;3.456;2023-04-01T03:23:45;22.10;;;14.18;;
55112;SDS011;41006;50.920;3.456;2023-04-01T03:24:15;21.27;;;13.70;;
55112;SDS011;41006;50.920;3.456;2023-04-01T03:24:45;19.67;;;14.20;;
55112;SDS011;41006;50.920;3.456;2023-04-01T03:25:15;16.52;;;14.38;;
55112;SDS011;41006;50.920;3.456;2023-04-01T03:25:46;16.40;;;14.05;;
55112;SDS011;41006;50.920;3.456;2023-04-01T03:26:16;20.50;;;14.82;;
55112;SDS011;41006;50.920;3.456;2023-04-01T03:26:49;18.55;;;13.80;;
55112;SDS011;41006;50.920;3.456;2023-04-01T03:27:22;18.80;;;13.40;;
55112;SDS011;41006;50.920;3.456;2023-04-01T03:27:53;16.35;;;14.65;;
55112;SDS011;41006;50.920;3.456;2023-04-01T03:28:23;16.05;;;13.85;;
55112;SDS011;41006;50.920;3.456;2023-04-01T03:28:56;17.05;;;13.93;;
55112;SDS011;41006;50.920;3.456;2023-04-01T03:29:26;18.55;;;14.73;;
55112;SDS011;41006;50.920;3.456;2023-04-01T03:29:57;19.15;;;15.13;;
55112;SDS011;41006;50.920;3.456;2023-04-01T03:30:29;18.20;;;14.07;;
55112;SDS011;41006;50.920;3.456;2023-04-01T03:31:03;18.10;;;14.25;;
55112;SDS011;41006;50.920;3.456;2023-04-01T03:31:33;19.00;;;15.10;;
55112;SDS011;41006;50.920;3.456;2023-04-01T03:32:04;18.30;;;12.88;;
55112;SDS011;41006;50.920;3.456;2023-04-01T03:32:35;15.95;;;13.98;;
55112;SDS011;41006;50.920;3.456;2023-04-01T03:33:05;14.90;;;13.38;;
55112;SDS011;41006;50.920;3.456;2023-04-01T03:33:40;17.30;;;14.38;;
55112;SDS011;41006;50.920;3.456;2023-04-01T03:34:13;18.40;;;15.35;;
55112;SDS011;41006;50.920;3.456;2023-04-01T03:34:43;16.00;;;13.70;;
55112;SDS011;41006;50.920;3.456;2023-04-01T03:35:16;19.10;;;14.63;;